sensor_id;sensor_type;location;lat;lon;timestamp;temperature;humidity
23685;DHT22;12020;51.384;6.908;2022-07-24T00:00:32;18.30;99.90
23685;DHT22;12020;51.384;6.908;2022-07-24T00:02:57;18.20;99.90
23685;DHT22;12020;51.384;6.908;2022-07-24T00:05:23;18.20;99.90
23685;DHT22;12020;51.384;6.908;2022-07-24T00:07:49;18.20;99.90
23685;DHT22;12020;51.384;6.908;2022-07-24T00:10:14;18.20;99.90
23685;DHT22;12020;51.384;6.908;2022-07-24T00:12:40;18.20;99.90
23685;DHT22;12020;51.384;6.908;2022-07-24T00:15:06;18.20;99.90
23685;DHT22;12020;51.384;6.908;2022-07-24T00:17:32;18.20;99.90
23685;DHT22;12020;51.384;6.908;2022-07-24T00:19:58;18.20;99.90
23685;DHT22;12020;51.384;6.908;2022-07-24T00:22:23;18.10;99.90
23685;DHT22;12020;51.384;6.908;2022-07-24T00:24:49;18.10;99.90
23685;DHT22;12020;51.384;6.908;2022-07-24T00:27:15;18.10;99.90
23685;DHT22;12020;51.384;6.908;2022-07-24T00:29:41;18.00;99.90
23685;DHT22;12020;51.384;6.908;2022-07-24T00:32:07;18.10;99.90
23685;DHT22;12020;51.384;6.908;2022-07-24T00:34:32;18.10;99.90
23685;DHT22;12020;51.384;6.908;2022-07-24T00:36:58;18.00;99.90
23685;DHT22;12020;51.384;6.908;2022-07-24T00:39:24;18.00;99.90
23685;DHT22;12020;51.384;6.908;2022-07-24T00:41:51;18.00;99.90
23685;DHT22;12020;51.384;6.908;2022-07-24T00:44:20;18.00;99.90
23685;DHT22;12020;51.384;6.908;2022-07-24T00:46:47;17.90;99.90
23685;DHT22;12020;51.384;6.908;2022-07-24T00:49:15;18.00;99.90
23685;DHT22;12020;51.384;6.908;2022-07-24T00:51:44;17.90;99.90
23685;DHT22;12020;51.384;6.908;2022-07-24T00:54:13;17.90;99.90
23685;DHT22;12020;51.384;6.908;2022-07-24T00:56:43;17.90;99.90
23685;DHT22;12020;51.384;6.908;2022-07-24T00:59:10;17.80;99.90
23685;DHT22;12020;51.384;6.908;2022-07-24T01:01:37;17.80;99.90
23685;DHT22;12020;51.384;6.908;2022-07-24T01:04:04;17.80;99.90
23685;DHT22;12020;51.384;6.908;2022-07-24T01:06:31;17.70;99.90
23685;DHT22;12020;51.384;6.908;2022-07-24T01:08:59;17.70;99.90
23685;DHT22;12020;51.384;6.908;2022-07-24T01:11:25;17.70;99.90
23685;DHT22;12020;51.384;6.908;2022-07-24T01:13:51;17.70;99.90
23685;DHT22;12020;51.384;6.908;2022-07-24T01:16:20;17.70;99.90
23685;DHT22;12020;51.384;6.908;2022-07-24T01:18:46;17.70;99.90
23685;DHT22;12020;51.384;6.908;2022-07-24T01:21:13;17.70;99.90
23685;DHT22;12020;51.384;6.908;2022-07-24T01:23:41;17.70;99.90
23685;DHT22;12020;51.384;6.908;2022-07-24T01:26:09;17.70;99.90
23685;DHT22;12020;51.384;6.908;2022-07-24T01:28:38;17.60;99.90
23685;DHT22;12020;51.384;6.908;2022-07-24T01:31:04;17.60;99.90
23685;DHT22;12020;51.384;6.908;2022-07-24T01:33:30;17.60;99.90
23685;DHT22;12020;51.384;6.908;2022-07-24T01:35:55;17.60;99.90
23685;DHT22;12020;51.384;6.908;2022-07-24T01:38:21;17.60;99.90
23685;DHT22;12020;51.384;6.908;2022-07-24T01:40:47;17.60;99.90
23685;DHT22;12020;51.384;6.908;2022-07-24T01:43:13;17.50;99.90
23685;DHT22;12020;51.384;6.908;2022-07-24T01:45:38;17.50;99.90
23685;DHT22;12020;51.384;6.908;2022-07-24T01:48:04;17.50;99.90
23685;DHT22;12020;51.384;6.908;2022-07-24T01:50:30;17.50;99.90
23685;DHT22;12020;51.384;6.908;2022-07-24T01:52:57;17.50;99.90
23685;DHT22;12020;51.384;6.908;2022-07-24T01:55:23;17.50;99.90
23685;DHT22;12020;51.384;6.908;2022-07-24T01:57:49;17.50;99.90
23685;DHT22;12020;51.384;6.908;2022-07-24T02:00:16;17.50;99.90
23685;DHT22;12020;51.384;6.908;2022-07-24T02:02:43;17.50;99.90
23685;DHT22;12020;51.384;6.908;2022-07-24T02:05:10;17.50;99.90
23685;DHT22;12020;51.384;6.908;2022-07-24T02:07:38;17.40;99.90
23685;DHT22;12020;51.384;6.908;2022-07-24T02:10:04;17.40;99.90
23685;DHT22;12020;51.384;6.908;2022-07-24T02:12:30;17.40;99.90
23685;DHT22;12020;51.384;6.908;2022-07-24T02:14:56;17.40;99.90
23685;DHT22;12020;51.384;6.908;2022-07-24T02:17:22;17.30;99.90
23685;DHT22;12020;51.384;6.908;2022-07-24T02:19:48;17.30;99.90
23685;DHT22;12020;51.384;6.908;2022-07-24T02:22:13;17.30;99.90
23685;DHT22;12020;51.384;6.908;2022-07-24T02:24:39;17.30;99.90
23685;DHT22;12020;51.384;6.908;2022-07-24T02:27:05;17.30;99.90
23685;DHT22;12020;51.384;6.908;2022-07-24T02:29:31;17.20;99.90
23685;DHT22;12020;51.384;6.908;2022-07-24T02:31:58;17.20;99.90
23685;DHT22;12020;51.384;6.908;2022-07-24T02:34:24;17.20;99.90
23685;DHT22;12020;51.384;6.908;2022-07-24T02:36:50;17.20;99.90
23685;DHT22;12020;51.384;6.908;2022-07-24T02:39:15;17.20;99.90
23685;DHT22;12020;51.384;6.908;2022-07-24T02:41:41;17.10;99.90
23685;DHT22;12020;51.384;6.908;2022-07-24T02:44:07;17.10;99.90
23685;DHT22;12020;51.384;6.908;2022-07-24T02:46:32;17.10;99.90
23685;DHT22;12020;51.384;6.908;2022-07-24T02:48:58;17.10;99.90
23685;DHT22;12020;51.384;6.908;2022-07-24T02:51:24;17.20;99.90
23685;DHT22;12020;51.384;6.908;2022-07-24T02:53:49;17.20;99.90
23685;DHT22;12020;51.384;6.908;2022-07-24T02:56:15;17.20;99.90
23685;DHT22;12020;51.384;6.908;2022-07-24T02:58:40;17.20;99.90
23685;DHT22;12020;51.384;6.908;2022-07-24T03:01:06;17.20;99.90
23685;DHT22;12020;51.384;6.908;2022-07-24T03:03:32;17.20;99.90
23685;DHT22;12020;51.384;6.908;2022-07-24T03:05:57;17.30;99.90
23685;DHT22;12020;51.384;6.908;2022-07-24T03:08:23;17.30;99.90
23685;DHT22;12020;51.384;6.908;2022-07-24T03:10:49;17.30;99.90
23685;DHT22;12020;51.384;6.908;2022-07-24T03:13:14;17.30;99.90
23685;DHT22;12020;51.384;6.908;2022-07-24T03:15:41;17.30;99.90
23685;DHT22;12020;51.384;6.908;2022-07-24T03:18:06;17.30;99.90
23685;DHT22;12020;51.384;6.908;2022-07-24T03:20:32;17.40;99.90
23685;DHT22;12020;51.384;6.908;2022-07-24T03:22:58;17.40;99.90
23685;DHT22;12020;51.384;6.908;2022-07-24T03:25:24;17.40;99.90
23685;DHT22;12020;51.384;6.908;2022-07-24T03:27:50;17.40;99.90
23685;DHT22;12020;51.384;6.908;2022-07-24T03:30:17;17.40;99.90
23685;DHT22;12020;51.384;6.908;2022-07-24T03:32:43;17.40;99.90
23685;DHT22;12020;51.384;6.908;2022-07-24T03:35:09;17.40;99.90
23685;DHT22;12020;51.384;6.908;2022-07-24T03:37:35;17.50;99.90
23685;DHT22;12020;51.384;6.908;2022-07-24T03:40:02;17.50;99.90
23685;DHT22;12020;51.384;6.908;2022-07-24T03:42:28;17.50;99.90
23685;DHT22;12020;51.384;6.908;2022-07-24T03:44:55;17.50;99.90
23685;DHT22;12020;51.384;6.908;2022-07-24T03:47:21;17.50;99.90
23685;DHT22;12020;51.384;6.908;2022-07-24T03:49:46;17.60;99.90
23685;DHT22;12020;51.384;6.908;2022-07-24T03:52:12;17.60;99.90
23685;DHT22;12020;51.384;6.908;2022-07-24T03:54:38;17.60;99.90
23685;DHT22;12020;51.384;6.908;2022-07-24T03:57:04;17.60;99.90
23685;DHT22;12020;51.384;6.908;2022-07-24T03:59:31;17.60;99.90
23685;DHT22;12020;51.384;6.908;2022-07-24T04:02:00;17.60;99.90
23685;DHT22;12020;51.384;6.908;2022-07-24T04:04:26;17.60;99.90
23685;DHT22;12020;51.384;6.908;2022-07-24T04:06:51;17.70;99.90
23685;DHT22;12020;51.384;6.908;2022-07-24T04:09:19;17.60;99.90
23685;DHT22;12020;51.384;6.908;2022-07-24T04:11:45;17.70;99.90
23685;DHT22;12020;51.384;6.908;2022-07-24T04:14:12;17.70;99.90
23685;DHT22;12020;51.384;6.908;2022-07-24T04:16:38;17.70;99.90
23685;DHT22;12020;51.384;6.908;2022-07-24T04:19:04;17.70;99.90
23685;DHT22;12020;51.384;6.908;2022-07-24T04:21:29;17.70;99.90
23685;DHT22;12020;51.384;6.908;2022-07-24T04:23:55;17.70;99.90
23685;DHT22;12020;51.384;6.908;2022-07-24T04:26:21;17.80;99.90
23685;DHT22;12020;51.384;6.908;2022-07-24T04:28:46;17.80;99.90
23685;DHT22;12020;51.384;6.908;2022-07-24T04:31:12;17.80;99.90
23685;DHT22;12020;51.384;6.908;2022-07-24T04:33:38;17.80;99.90
23685;DHT22;12020;51.384;6.908;2022-07-24T04:36:04;17.80;99.90
23685;DHT22;12020;51.384;6.908;2022-07-24T04:38:33;17.90;99.90
23685;DHT22;12020;51.384;6.908;2022-07-24T04:40:58;17.90;99.90
23685;DHT22;12020;51.384;6.908;2022-07-24T04:43:24;17.90;99.90
23685;DHT22;12020;51.384;6.908;2022-07-24T04:45:50;17.90;99.90
23685;DHT22;12020;51.384;6.908;2022-07-24T04:48:16;18.00;99.90
23685;DHT22;12020;51.384;6.908;2022-07-24T04:50:42;18.00;99.90
23685;DHT22;12020;51.384;6.908;2022-07-24T04:53:08;18.00;99.90
23685;DHT22;12020;51.384;6.908;2022-07-24T04:55:33;18.10;99.90
23685;DHT22;12020;51.384;6.908;2022-07-24T04:57:59;18.10;99.90
23685;DHT22;12020;51.384;6.908;2022-07-24T05:00:25;18.10;99.90
23685;DHT22;12020;51.384;6.908;2022-07-24T05:02:52;18.10;99.90
23685;DHT22;12020;51.384;6.908;2022-07-24T05:05:17;18.10;99.90
23685;DHT22;12020;51.384;6.908;2022-07-24T05:07:43;18.10;99.90
23685;DHT22;12020;51.384;6.908;2022-07-24T05:10:09;18.20;99.90
23685;DHT22;12020;51.384;6.908;2022-07-24T05:12:35;18.20;99.90
23685;DHT22;12020;51.384;6.908;2022-07-24T05:15:00;18.20;99.90
23685;DHT22;12020;51.384;6.908;2022-07-24T05:17:26;18.20;99.90
23685;DHT22;12020;51.384;6.908;2022-07-24T05:19:52;18.30;99.90
23685;DHT22;12020;51.384;6.908;2022-07-24T05:22:17;18.40;99.90
23685;DHT22;12020;51.384;6.908;2022-07-24T05:24:43;18.40;99.90
23685;DHT22;12020;51.384;6.908;2022-07-24T05:27:09;18.40;99.90
23685;DHT22;12020;51.384;6.908;2022-07-24T05:29:34;18.50;99.90
23685;DHT22;12020;51.384;6.908;2022-07-24T05:32:00;18.60;99.90
23685;DHT22;12020;51.384;6.908;2022-07-24T05:34:26;18.60;99.90
23685;DHT22;12020;51.384;6.908;2022-07-24T05:36:52;18.70;99.90
23685;DHT22;12020;51.384;6.908;2022-07-24T05:39:17;18.80;99.90
23685;DHT22;12020;51.384;6.908;2022-07-24T05:41:43;18.80;99.90
23685;DHT22;12020;51.384;6.908;2022-07-24T05:44:09;18.90;99.90
23685;DHT22;12020;51.384;6.908;2022-07-24T05:46:35;18.90;99.90
23685;DHT22;12020;51.384;6.908;2022-07-24T05:49:01;18.90;99.90
23685;DHT22;12020;51.384;6.908;2022-07-24T05:51:27;19.00;99.90
23685;DHT22;12020;51.384;6.908;2022-07-24T05:53:52;19.00;99.90
23685;DHT22;12020;51.384;6.908;2022-07-24T05:56:18;19.00;99.90
23685;DHT22;12020;51.384;6.908;2022-07-24T05:58:44;19.10;99.90
23685;DHT22;12020;51.384;6.908;2022-07-24T06:01:09;19.10;99.90
23685;DHT22;12020;51.384;6.908;2022-07-24T06:03:37;19.10;99.90
23685;DHT22;12020;51.384;6.908;2022-07-24T06:06:06;19.20;99.90
23685;DHT22;12020;51.384;6.908;2022-07-24T06:08:31;19.20;99.90
23685;DHT22;12020;51.384;6.908;2022-07-24T06:10:57;19.30;99.90
23685;DHT22;12020;51.384;6.908;2022-07-24T06:13:23;19.40;99.90
23685;DHT22;12020;51.384;6.908;2022-07-24T06:15:49;19.40;99.90
23685;DHT22;12020;51.384;6.908;2022-07-24T06:18:14;19.50;99.90
23685;DHT22;12020;51.384;6.908;2022-07-24T06:20:40;19.50;99.90
23685;DHT22;12020;51.384;6.908;2022-07-24T06:23:06;19.50;99.90
23685;DHT22;12020;51.384;6.908;2022-07-24T06:25:32;19.60;99.90
23685;DHT22;12020;51.384;6.908;2022-07-24T06:27:57;19.70;99.90
23685;DHT22;12020;51.384;6.908;2022-07-24T06:30:25;19.70;99.90
23685;DHT22;12020;51.384;6.908;2022-07-24T06:32:54;19.70;99.90
23685;DHT22;12020;51.384;6.908;2022-07-24T06:35:20;19.70;99.90
23685;DHT22;12020;51.384;6.908;2022-07-24T06:37:46;19.80;99.90
23685;DHT22;12020;51.384;6.908;2022-07-24T06:40:12;19.80;99.90
23685;DHT22;12020;51.384;6.908;2022-07-24T06:42:38;19.80;99.90
23685;DHT22;12020;51.384;6.908;2022-07-24T06:45:04;19.90;99.90
23685;DHT22;12020;51.384;6.908;2022-07-24T06:47:30;19.90;99.90
23685;DHT22;12020;51.384;6.908;2022-07-24T06:49:57;20.00;99.90
23685;DHT22;12020;51.384;6.908;2022-07-24T06:52:23;20.10;99.90
23685;DHT22;12020;51.384;6.908;2022-07-24T06:54:49;20.10;99.90
23685;DHT22;12020;51.384;6.908;2022-07-24T06:57:15;20.10;99.90
23685;DHT22;12020;51.384;6.908;2022-07-24T06:59:42;20.20;99.90
23685;DHT22;12020;51.384;6.908;2022-07-24T07:02:08;20.30;99.90
23685;DHT22;12020;51.384;6.908;2022-07-24T07:04:35;20.30;99.90
23685;DHT22;12020;51.384;6.908;2022-07-24T07:07:02;20.40;99.90
23685;DHT22;12020;51.384;6.908;2022-07-24T07:09:33;20.50;99.90
23685;DHT22;12020;51.384;6.908;2022-07-24T07:12:07;20.50;99.90
23685;DHT22;12020;51.384;6.908;2022-07-24T07:14:33;20.60;99.90
23685;DHT22;12020;51.384;6.908;2022-07-24T07:17:00;20.70;99.90
23685;DHT22;12020;51.384;6.908;2022-07-24T07:19:29;20.80;99.90
23685;DHT22;12020;51.384;6.908;2022-07-24T07:21:57;20.80;99.90
23685;DHT22;12020;51.384;6.908;2022-07-24T07:24:26;20.90;99.90
23685;DHT22;12020;51.384;6.908;2022-07-24T07:26:58;21.00;99.90
23685;DHT22;12020;51.384;6.908;2022-07-24T07:29:25;21.10;99.90
23685;DHT22;12020;51.384;6.908;2022-07-24T07:32:07;21.20;99.90
23685;DHT22;12020;51.384;6.908;2022-07-24T07:34:37;21.30;99.90
23685;DHT22;12020;51.384;6.908;2022-07-24T07:37:03;21.40;99.90
23685;DHT22;12020;51.384;6.908;2022-07-24T07:39:32;21.50;99.90
23685;DHT22;12020;51.384;6.908;2022-07-24T07:41:58;21.60;99.90
23685;DHT22;12020;51.384;6.908;2022-07-24T07:44:26;21.70;99.90
23685;DHT22;12020;51.384;6.908;2022-07-24T07:46:53;21.80;99.90
23685;DHT22;12020;51.384;6.908;2022-07-24T07:49:25;22.00;99.90
23685;DHT22;12020;51.384;6.908;2022-07-24T07:51:51;22.20;99.90
23685;DHT22;12020;51.384;6.908;2022-07-24T07:54:21;22.30;99.90
23685;DHT22;12020;51.384;6.908;2022-07-24T07:56:49;22.40;99.90
23685;DHT22;12020;51.384;6.908;2022-07-24T07:59:15;22.60;99.90
23685;DHT22;12020;51.384;6.908;2022-07-24T08:01:40;22.80;99.90
23685;DHT22;12020;51.384;6.908;2022-07-24T08:04:07;23.00;99.90
23685;DHT22;12020;51.384;6.908;2022-07-24T08:06:34;23.20;99.90
23685;DHT22;12020;51.384;6.908;2022-07-24T08:09:04;23.50;99.90
23685;DHT22;12020;51.384;6.908;2022-07-24T08:11:30;23.70;99.90
23685;DHT22;12020;51.384;6.908;2022-07-24T08:13:57;24.00;99.90
23685;DHT22;12020;51.384;6.908;2022-07-24T08:16:26;24.20;99.90
23685;DHT22;12020;51.384;6.908;2022-07-24T08:18:55;24.40;99.90
23685;DHT22;12020;51.384;6.908;2022-07-24T08:21:22;24.70;99.90
23685;DHT22;12020;51.384;6.908;2022-07-24T08:23:56;24.90;99.90
23685;DHT22;12020;51.384;6.908;2022-07-24T08:26:24;25.10;99.90
23685;DHT22;12020;51.384;6.908;2022-07-24T08:28:52;25.30;99.90
23685;DHT22;12020;51.384;6.908;2022-07-24T08:31:26;25.50;99.90
23685;DHT22;12020;51.384;6.908;2022-07-24T08:33:59;25.80;99.90
23685;DHT22;12020;51.384;6.908;2022-07-24T08:36:25;26.00;99.90
23685;DHT22;12020;51.384;6.908;2022-07-24T08:38:59;26.20;99.90
23685;DHT22;12020;51.384;6.908;2022-07-24T08:41:30;26.40;99.90
23685;DHT22;12020;51.384;6.908;2022-07-24T08:44:03;26.50;99.90
23685;DHT22;12020;51.384;6.908;2022-07-24T08:46:31;26.70;99.90
23685;DHT22;12020;51.384;6.908;2022-07-24T08:48:59;26.90;99.90
23685;DHT22;12020;51.384;6.908;2022-07-24T08:51:37;27.00;99.90
23685;DHT22;12020;51.384;6.908;2022-07-24T08:54:06;27.20;99.90
23685;DHT22;12020;51.384;6.908;2022-07-24T08:56:38;27.40;99.90
23685;DHT22;12020;51.384;6.908;2022-07-24T09:01:57;27.70;99.90
23685;DHT22;12020;51.384;6.908;2022-07-24T09:04:47;27.90;99.90
23685;DHT22;12020;51.384;6.908;2022-07-24T09:07:18;28.10;99.90
23685;DHT22;12020;51.384;6.908;2022-07-24T09:10:02;28.20;99.90
23685;DHT22;12020;51.384;6.908;2022-07-24T09:12:36;28.30;99.90
23685;DHT22;12020;51.384;6.908;2022-07-24T09:15:15;28.50;99.90
23685;DHT22;12020;51.384;6.908;2022-07-24T09:17:54;28.60;99.90
23685;DHT22;12020;51.384;6.908;2022-07-24T09:20:24;28.80;99.90
23685;DHT22;12020;51.384;6.908;2022-07-24T09:22:57;28.90;99.90
23685;DHT22;12020;51.384;6.908;2022-07-24T09:25:27;29.00;99.90
23685;DHT22;12020;51.384;6.908;2022-07-24T09:28:00;29.00;99.90
23685;DHT22;12020;51.384;6.908;2022-07-24T09:30:37;29.10;99.90
23685;DHT22;12020;51.384;6.908;2022-07-24T09:33:18;29.30;99.90
23685;DHT22;12020;51.384;6.908;2022-07-24T09:35:48;29.30;99.90
23685;DHT22;12020;51.384;6.908;2022-07-24T09:38:20;29.30;99.90
23685;DHT22;12020;51.384;6.908;2022-07-24T09:40:50;29.50;99.90
23685;DHT22;12020;51.384;6.908;2022-07-24T09:43:30;29.50;99.90
23685;DHT22;12020;51.384;6.908;2022-07-24T09:46:10;29.70;99.90
23685;DHT22;12020;51.384;6.908;2022-07-24T09:48:55;29.80;99.90
23685;DHT22;12020;51.384;6.908;2022-07-24T09:51:23;29.90;99.90
23685;DHT22;12020;51.384;6.908;2022-07-24T09:53:54;30.00;99.80
23685;DHT22;12020;51.384;6.908;2022-07-24T09:56:21;30.00;99.90
23685;DHT22;12020;51.384;6.908;2022-07-24T09:58:50;30.10;99.60
23685;DHT22;12020;51.384;6.908;2022-07-24T10:01:20;30.20;99.90
23685;DHT22;12020;51.384;6.908;2022-07-24T10:03:47;30.30;99.20
23685;DHT22;12020;51.384;6.908;2022-07-24T10:06:22;30.40;99.90
23685;DHT22;12020;51.384;6.908;2022-07-24T10:08:51;30.60;99.90
23685;DHT22;12020;51.384;6.908;2022-07-24T10:11:22;30.60;98.00
23685;DHT22;12020;51.384;6.908;2022-07-24T10:14:03;30.70;98.00
23685;DHT22;12020;51.384;6.908;2022-07-24T10:16:32;30.80;98.80
23685;DHT22;12020;51.384;6.908;2022-07-24T10:19:02;30.80;96.70
23685;DHT22;12020;51.384;6.908;2022-07-24T10:21:35;30.80;97.30
23685;DHT22;12020;51.384;6.908;2022-07-24T10:26:41;30.90;96.20
23685;DHT22;12020;51.384;6.908;2022-07-24T10:29:13;30.90;95.90
23685;DHT22;12020;51.384;6.908;2022-07-24T10:31:45;30.90;94.60
23685;DHT22;12020;51.384;6.908;2022-07-24T10:43:10;31.10;96.20
23685;DHT22;12020;51.384;6.908;2022-07-24T10:48:36;31.00;95.30
23685;DHT22;12020;51.384;6.908;2022-07-24T10:51:10;31.10;94.70
23685;DHT22;12020;51.384;6.908;2022-07-24T10:53:49;31.10;94.40
23685;DHT22;12020;51.384;6.908;2022-07-24T10:56:23;31.10;95.00
23685;DHT22;12020;51.384;6.908;2022-07-24T11:06:56;31.20;94.70
23685;DHT22;12020;51.384;6.908;2022-07-24T11:09:27;31.20;94.00
23685;DHT22;12020;51.384;6.908;2022-07-24T11:14:46;31.30;94.10
23685;DHT22;12020;51.384;6.908;2022-07-24T11:22:45;30.90;93.80
23685;DHT22;12020;51.384;6.908;2022-07-24T11:30:28;30.70;93.80
23685;DHT22;12020;51.384;6.908;2022-07-24T11:32:55;30.70;93.60
23685;DHT22;12020;51.384;6.908;2022-07-24T11:35:35;30.60;94.30
23685;DHT22;12020;51.384;6.908;2022-07-24T11:38:05;30.40;92.70
23685;DHT22;12020;51.384;6.908;2022-07-24T11:40:32;30.20;93.60
23685;DHT22;12020;51.384;6.908;2022-07-24T11:43:00;30.10;92.40
23685;DHT22;12020;51.384;6.908;2022-07-24T11:45:37;30.00;92.30
23685;DHT22;12020;51.384;6.908;2022-07-24T11:48:06;30.00;92.50
23685;DHT22;12020;51.384;6.908;2022-07-24T11:50:33;30.00;93.70
23685;DHT22;12020;51.384;6.908;2022-07-24T11:53:10;30.10;93.50
23685;DHT22;12020;51.384;6.908;2022-07-24T11:55:39;30.20;93.70
23685;DHT22;12020;51.384;6.908;2022-07-24T11:58:07;30.30;93.60
23685;DHT22;12020;51.384;6.908;2022-07-24T12:00:35;30.40;91.60
23685;DHT22;12020;51.384;6.908;2022-07-24T12:03:01;30.50;92.50
23685;DHT22;12020;51.384;6.908;2022-07-24T12:05:35;30.50;91.10
23685;DHT22;12020;51.384;6.908;2022-07-24T12:08:19;30.50;91.30
23685;DHT22;12020;51.384;6.908;2022-07-24T12:10:56;30.60;91.70
23685;DHT22;12020;51.384;6.908;2022-07-24T12:13:22;30.60;91.10
23685;DHT22;12020;51.384;6.908;2022-07-24T12:15:48;30.60;92.00
23685;DHT22;12020;51.384;6.908;2022-07-24T12:18:14;30.60;91.80
23685;DHT22;12020;51.384;6.908;2022-07-24T12:20:42;30.70;91.00
23685;DHT22;12020;51.384;6.908;2022-07-24T12:23:12;30.70;91.00
23685;DHT22;12020;51.384;6.908;2022-07-24T12:25:40;30.80;90.50
23685;DHT22;12020;51.384;6.908;2022-07-24T12:28:16;30.80;90.60
23685;DHT22;12020;51.384;6.908;2022-07-24T12:30:50;30.70;88.20
23685;DHT22;12020;51.384;6.908;2022-07-24T12:33:24;30.70;87.40
23685;DHT22;12020;51.384;6.908;2022-07-24T12:36:10;30.70;90.30
23685;DHT22;12020;51.384;6.908;2022-07-24T12:38:55;30.50;89.40
23685;DHT22;12020;51.384;6.908;2022-07-24T12:41:23;30.50;89.30
23685;DHT22;12020;51.384;6.908;2022-07-24T12:43:58;30.60;89.10
23685;DHT22;12020;51.384;6.908;2022-07-24T12:49:04;30.70;87.70
23685;DHT22;12020;51.384;6.908;2022-07-24T12:54:36;30.80;89.10
23685;DHT22;12020;51.384;6.908;2022-07-24T12:57:10;30.80;87.20
23685;DHT22;12020;51.384;6.908;2022-07-24T12:59:37;30.80;88.50
23685;DHT22;12020;51.384;6.908;2022-07-24T13:02:06;30.90;87.60
23685;DHT22;12020;51.384;6.908;2022-07-24T13:04:39;30.90;85.00
23685;DHT22;12020;51.384;6.908;2022-07-24T13:07:09;30.90;84.60
23685;DHT22;12020;51.384;6.908;2022-07-24T13:09:39;30.80;83.80
23685;DHT22;12020;51.384;6.908;2022-07-24T13:12:08;30.80;85.20
23685;DHT22;12020;51.384;6.908;2022-07-24T13:14:34;30.80;85.30
23685;DHT22;12020;51.384;6.908;2022-07-24T13:17:06;30.80;83.70
23685;DHT22;12020;51.384;6.908;2022-07-24T13:19:49;30.80;83.20
23685;DHT22;12020;51.384;6.908;2022-07-24T13:22:17;30.80;83.30
23685;DHT22;12020;51.384;6.908;2022-07-24T13:24:43;30.90;81.10
23685;DHT22;12020;51.384;6.908;2022-07-24T13:27:11;30.80;83.40
23685;DHT22;12020;51.384;6.908;2022-07-24T13:29:40;30.70;82.70
23685;DHT22;12020;51.384;6.908;2022-07-24T13:32:15;30.70;83.00
23685;DHT22;12020;51.384;6.908;2022-07-24T13:34:40;30.60;81.30
23685;DHT22;12020;51.384;6.908;2022-07-24T13:37:13;30.60;79.50
23685;DHT22;12020;51.384;6.908;2022-07-24T13:39:39;30.60;81.00
23685;DHT22;12020;51.384;6.908;2022-07-24T13:42:11;30.60;85.40
23685;DHT22;12020;51.384;6.908;2022-07-24T13:44:37;30.60;84.40
23685;DHT22;12020;51.384;6.908;2022-07-24T13:47:04;30.70;83.10
23685;DHT22;12020;51.384;6.908;2022-07-24T13:49:31;30.60;81.20
23685;DHT22;12020;51.384;6.908;2022-07-24T13:51:57;30.60;82.10
23685;DHT22;12020;51.384;6.908;2022-07-24T13:54:23;30.60;83.00
23685;DHT22;12020;51.384;6.908;2022-07-24T13:56:54;30.70;85.00
23685;DHT22;12020;51.384;6.908;2022-07-24T13:59:20;30.70;86.80
23685;DHT22;12020;51.384;6.908;2022-07-24T14:01:49;30.70;85.70
23685;DHT22;12020;51.384;6.908;2022-07-24T14:04:29;30.60;86.20
23685;DHT22;12020;51.384;6.908;2022-07-24T14:07:03;30.60;85.60
23685;DHT22;12020;51.384;6.908;2022-07-24T14:09:29;30.50;86.30
23685;DHT22;12020;51.384;6.908;2022-07-24T14:11:55;30.60;87.60
23685;DHT22;12020;51.384;6.908;2022-07-24T14:14:21;30.60;87.80
23685;DHT22;12020;51.384;6.908;2022-07-24T14:16:50;30.60;86.70
23685;DHT22;12020;51.384;6.908;2022-07-24T14:19:16;30.60;83.80
23685;DHT22;12020;51.384;6.908;2022-07-24T14:21:46;30.70;87.40
23685;DHT22;12020;51.384;6.908;2022-07-24T14:24:16;30.60;87.00
23685;DHT22;12020;51.384;6.908;2022-07-24T14:26:46;30.70;84.60
23685;DHT22;12020;51.384;6.908;2022-07-24T14:29:15;30.60;83.70
23685;DHT22;12020;51.384;6.908;2022-07-24T14:31:43;30.60;84.10
23685;DHT22;12020;51.384;6.908;2022-07-24T14:34:15;30.60;86.20
23685;DHT22;12020;51.384;6.908;2022-07-24T14:36:48;30.60;85.00
23685;DHT22;12020;51.384;6.908;2022-07-24T14:39:14;30.60;82.20
23685;DHT22;12020;51.384;6.908;2022-07-24T14:41:40;30.50;82.10
23685;DHT22;12020;51.384;6.908;2022-07-24T14:44:12;30.50;85.90
23685;DHT22;12020;51.384;6.908;2022-07-24T14:46:39;30.60;86.10
23685;DHT22;12020;51.384;6.908;2022-07-24T14:49:08;30.50;84.00
23685;DHT22;12020;51.384;6.908;2022-07-24T14:51:34;30.40;85.10
23685;DHT22;12020;51.384;6.908;2022-07-24T14:54:03;30.40;86.60
23685;DHT22;12020;51.384;6.908;2022-07-24T14:56:37;30.40;87.90
23685;DHT22;12020;51.384;6.908;2022-07-24T14:59:07;30.40;85.70
23685;DHT22;12020;51.384;6.908;2022-07-24T15:01:36;30.30;87.20
23685;DHT22;12020;51.384;6.908;2022-07-24T15:04:02;30.30;86.30
23685;DHT22;12020;51.384;6.908;2022-07-24T15:06:29;30.30;86.00
23685;DHT22;12020;51.384;6.908;2022-07-24T15:08:59;30.30;86.10
23685;DHT22;12020;51.384;6.908;2022-07-24T15:11:24;30.30;86.00
23685;DHT22;12020;51.384;6.908;2022-07-24T15:13:56;30.30;85.60
23685;DHT22;12020;51.384;6.908;2022-07-24T15:16:26;30.20;85.20
23685;DHT22;12020;51.384;6.908;2022-07-24T15:18:53;30.20;85.60
23685;DHT22;12020;51.384;6.908;2022-07-24T15:21:18;30.20;85.60
23685;DHT22;12020;51.384;6.908;2022-07-24T15:23:45;30.20;86.70
23685;DHT22;12020;51.384;6.908;2022-07-24T15:26:15;30.20;86.10
23685;DHT22;12020;51.384;6.908;2022-07-24T15:28:43;30.20;86.00
23685;DHT22;12020;51.384;6.908;2022-07-24T15:31:09;30.10;87.90
23685;DHT22;12020;51.384;6.908;2022-07-24T15:33:36;30.20;89.30
23685;DHT22;12020;51.384;6.908;2022-07-24T15:36:02;30.10;87.40
23685;DHT22;12020;51.384;6.908;2022-07-24T15:38:32;30.10;87.60
23685;DHT22;12020;51.384;6.908;2022-07-24T15:40:58;30.10;88.50
23685;DHT22;12020;51.384;6.908;2022-07-24T15:43:24;30.10;89.60
23685;DHT22;12020;51.384;6.908;2022-07-24T15:45:51;30.20;87.60
23685;DHT22;12020;51.384;6.908;2022-07-24T15:48:21;30.10;86.60
23685;DHT22;12020;51.384;6.908;2022-07-24T15:50:48;30.10;85.40
23685;DHT22;12020;51.384;6.908;2022-07-24T15:53:14;30.00;85.20
23685;DHT22;12020;51.384;6.908;2022-07-24T15:55:41;30.00;85.30
23685;DHT22;12020;51.384;6.908;2022-07-24T15:58:11;30.00;85.60
23685;DHT22;12020;51.384;6.908;2022-07-24T16:00:38;30.00;87.80
23685;DHT22;12020;51.384;6.908;2022-07-24T16:03:03;29.90;87.00
23685;DHT22;12020;51.384;6.908;2022-07-24T16:05:32;29.90;88.00
23685;DHT22;12020;51.384;6.908;2022-07-24T16:08:04;29.90;87.90
23685;DHT22;12020;51.384;6.908;2022-07-24T16:10:31;29.90;88.80
23685;DHT22;12020;51.384;6.908;2022-07-24T16:12:57;29.90;89.50
23685;DHT22;12020;51.384;6.908;2022-07-24T16:15:24;29.90;88.70
23685;DHT22;12020;51.384;6.908;2022-07-24T16:17:52;29.80;88.40
23685;DHT22;12020;51.384;6.908;2022-07-24T16:20:18;29.80;87.70